Time;durP1;ratioP1;P1;durP2;ratioP2;P2;SDS_P1;SDS_P2;PMS_P1;PMS_P2;Temp;Humidity;BMP_temperature;BMP_pressure;BME280_temperature;BME280_humidity;BME280_pressure;Samples;Min_cycle;Max_cycle;Signal;HPM_P1;HPM_P2
2023/12/28 12:36:55;;;;;;;3.17;1.58;;;11.50;67.50;;;;;;7559334;19;20370;-70
2023/12/28 12:39:32;;;;;;;6.82;3.10;;;11.40;68.90;;;;;;7599393;19;20011;-73
2023/12/28 12:42:16;;;;;;;3.17;1.80;;;11.40;69.80;;;;;;7548785;19;20052;-74
2023/12/28 12:44:49;;;;;;;4.63;1.48;;;11.40;68.50;;;;;;7563847;19;21244;-74
2023/12/28 12:47:22;;;;;;;1.77;1.60;;;11.50;68.70;;;;;;7580008;19;20461;-73
2023/12/28 12:49:56;;;;;;;2.40;1.43;;;11.60;68.80;;;;;;7596045;19;20022;-73
2023/12/28 12:52:28;;;;;;;2.60;1.73;;;11.60;68.30;;;;;;7572870;19;20018;-73
2023/12/28 12:55:01;;;;;;;4.78;1.40;;;11.60;68.60;;;;;;7584466;19;20018;-73
2023/12/28 12:57:34;;;;;;;2.90;1.67;;;11.70;67.80;;;;;;7592325;19;20006;-74
2023/12/28 13:00:09;;;;;;;3.67;2.00;;;11.70;67.90;;;;;;7592431;19;20014;-73
2023/12/28 13:02:44;;;;;;;2.50;1.60;;;11.70;67.60;;;;;;7579331;19;20033;-73
2023/12/28 13:05:18;;;;;;;2.22;1.42;;;11.80;67.30;;;;;;7566485;19;20094;-75
2023/12/28 13:07:51;;;;;;;3.50;1.95;;;11.80;67.70;;;;;;7582112;19;20104;-75
2023/12/28 13:10:24;;;;;;;4.07;2.00;;;11.80;68.00;;;;;;7581147;19;20010;-73
2023/12/28 13:12:57;;;;;;;3.88;1.88;;;11.90;67.50;;;;;;7561871;19;20886;-73
2023/12/28 13:15:30;;;;;;;;;;;11.90;67.50;;;;;;7569573;19;20032;-73
2023/12/28 13:18:02;;;;;;;6.53;2.05;;;11.90;67.40;;;;;;7588139;19;20273;-73
2023/12/28 13:20:36;;;;;;;4.90;2.30;;;11.90;67.80;;;;;;7487856;19;20813;-74
2023/12/28 13:23:09;;;;;;;5.35;2.70;;;11.90;67.80;;;;;;7535982;19;20014;-75
2023/12/28 13:25:44;;;;;;;2.50;1.70;;;11.90;67.90;;;;;;7548449;19;20014;-75
2023/12/28 13:28:19;;;;;;;4.93;2.00;;;11.90;67.60;;;;;;7569668;19;20041;-73
2023/12/28 13:30:55;;;;;;;4.32;1.77;;;11.90;67.80;;;;;;7568813;19;20552;-73
2023/12/28 13:33:29;;;;;;;2.58;2.00;;;11.90;67.90;;;;;;7589660;19;20026;-73
2023/12/28 13:36:03;;;;;;;4.68;2.10;;;11.80;68.00;;;;;;7537527;19;20014;-73
2023/12/28 13:38:35;;;;;;;3.58;1.90;;;11.80;68.70;;;;;;7574131;19;21024;-73
2023/12/28 13:41:08;;;;;;;6.90;2.45;;;11.80;69.10;;;;;;7563360;19;20536;-74
2023/12/28 13:43:40;;;;;;;4.38;2.22;;;11.70;69.10;;;;;;7541009;19;20901;-75
2023/12/28 13:46:13;;;;;;;4.50;2.50;;;11.70;69.50;;;;;;7534031;19;20757;-73
2023/12/28 13:48:46;;;;;;;3.77;2.30;;;11.70;70.30;;;;;;7572704;19;20110;-74
2023/12/28 13:51:21;;;;;;;3.60;1.92;;;11.60;71.40;;;;;;7583475;19;20071;-74
2023/12/28 13:53:53;;;;;;;3.50;2.17;;;11.60;70.50;;;;;;7577495;19;20470;-75
2023/12/28 13:56:26;;;;;;;4.45;2.50;;;11.60;70.60;;;;;;7559422;19;20022;-73
2023/12/28 13:58:58;;;;;;;5.90;2.00;;;11.60;70.30;;;;;;7540080;19;20022;-73
2023/12/28 14:01:31;;;;;;;3.45;2.20;;;11.70;69.10;;;;;;7525687;19;20007;-73
2023/12/28 14:04:04;;;;;;;3.05;1.65;;;11.70;69.90;;;;;;7556920;19;20029;-75
2023/12/28 14:06:36;;;;;;;4.55;2.58;;;11.70;70.00;;;;;;7536177;19;20017;-73
2023/12/28 14:09:09;;;;;;;4.27;2.67;;;11.70;69.60;;;;;;7546687;19;21030;-73
2023/12/28 14:11:41;;;;;;;3.63;2.15;;;11.70;69.90;;;;;;7547644;19;20101;-74
2023/12/28 14:14:14;;;;;;;2.75;1.92;;;11.70;69.70;;;;;;7546916;19;20021;-74
2023/12/28 14:16:46;;;;;;;4.13;1.98;;;11.60;70.30;;;;;;7565673;19;20023;-73
2023/12/28 14:19:19;;;;;;;7.88;2.30;;;11.60;70.70;;;;;;7540016;19;20018;-73
2023/12/28 14:21:51;;;;;;;6.03;3.05;;;11.60;69.70;;;;;;7560528;19;20060;-73
2023/12/28 14:24:25;;;;;;;10.35;4.07;;;11.60;70.60;;;;;;7553091;19;20018;-73
2023/12/28 14:26:58;;;;;;;8.88;3.53;;;11.60;70.30;;;;;;7517335;19;20028;-73
2023/12/28 14:29:32;;;;;;;8.85;3.67;;;11.60;70.00;;;;;;7530261;19;20019;-73
2023/12/28 14:32:05;;;;;;;5.35;2.85;;;11.60;70.00;;;;;;7523783;19;20022;-73
2023/12/28 14:34:38;;;;;;;5.45;3.15;;;11.50;70.40;;;;;;7517967;19;20022;-73
2023/12/28 14:37:10;;;;;;;3.78;2.22;;;11.50;70.60;;;;;;7534527;19;20027;-73
2023/12/28 14:39:43;;;;;;;7.80;4.45;;;11.50;69.70;;;;;;7545396;19;20478;-73
2023/12/28 14:42:18;;;;;;;8.70;4.00;;;11.40;70.40;;;;;;7533433;19;20056;-72
2023/12/28 14:44:54;;;;;;;10.50;5.38;;;11.30;71.80;;;;;;7541797;19;20024;-72
2023/12/28 14:47:27;;;;;;;6.10;2.60;;;11.30;71.00;;;;;;7543346;19;20077;-72
2023/12/28 14:50:01;;;;;;;6.65;3.38;;;11.30;71.00;;;;;;7540713;19;20094;-74
2023/12/28 14:52:37;;;;;;;7.70;2.80;;;11.30;71.70;;;;;;7557947;19;20129;-73
2023/12/28 14:55:11;;;;;;;5.30;3.13;;;11.30;71.40;;;;;;7547056;19;20348;-74
2023/12/28 14:57:44;;;;;;;6.35;3.08;;;11.30;71.00;;;;;;7560194;19;20514;-71
2023/12/28 15:00:17;;;;;;;5.00;3.13;;;11.30;71.00;;;;;;7576659;19;20011;-71
2023/12/28 15:02:50;;;;;;;5.93;2.87;;;11.30;70.70;;;;;;7579972;19;20018;-71
2023/12/28 15:05:22;;;;;;;7.13;3.08;;;11.20;71.10;;;;;;7561446;19;21058;-73
2023/12/28 15:07:55;;;;;;;6.80;3.47;;;11.20;71.20;;;;;;7563543;19;20648;-74
2023/12/28 15:10:28;;;;;;;5.97;3.83;;;11.10;71.30;;;;;;7552407;19;20006;-71
2023/12/28 15:13:01;;;;;;;5.60;4.03;;;11.10;71.30;;;;;;7559910;19;20026;-71
2023/12/28 15:15:34;;;;;;;6.13;3.67;;;11.10;71.90;;;;;;7562934;19;21004;-71
2023/12/28 15:18:07;;;;;;;5.50;3.53;;;11.10;70.90;;;;;;7554640;19;20823;-72
2023/12/28 15:20:40;;;;;;;7.53;4.03;;;11.10;71.20;;;;;;7545641;19;20817;-72
2023/12/28 15:23:13;;;;;;;5.03;3.40;;;11.00;71.90;;;;;;7543944;19;21374;-72
2023/12/28 15:25:46;;;;;;;;;;;11.00;71.50;;;;;;7542503;19;20821;-72
2023/12/28 15:28:19;;;;;;;8.30;4.68;;;10.90;72.00;;;;;;7578693;19;19960;-72
2023/12/28 15:30:52;;;;;;;5.68;3.78;;;10.80;71.80;;;;;;7576060;19;20634;-73
2023/12/28 15:33:25;;;;;;;6.00;3.10;;;10.90;71.40;;;;;;7551503;19;20010;-72
2023/12/28 15:35:58;;;;;;;5.85;3.50;;;10.80;71.80;;;;;;7572115;19;20128;-72
2023/12/28 15:38:30;;;;;;;6.32;3.22;;;10.80;71.30;;;;;;7566540;19;20139;-73
2023/12/28 15:41:09;;;;;;;6.10;4.47;;;10.70;72.00;;;;;;7592760;19;20017;-71
2023/12/28 15:43:41;;;;;;;6.70;4.85;;;10.70;73.50;;;;;;7558967;19;20050;-72
2023/12/28 15:46:14;;;;;;;10.80;5.68;;;10.50;73.90;;;;;;7573504;19;20025;-72
2023/12/28 15:48:46;;;;;;;9.50;5.80;;;10.50;73.90;;;;;;7572583;19;20021;-73
2023/12/28 15:51:19;;;;;;;9.20;6.73;;;10.40;74.20;;;;;;7554938;19;20014;-73
2023/12/28 15:53:51;;;;;;;9.07;6.28;;;10.40;74.50;;;;;;7566196;19;20587;-73
2023/12/28 15:56:23;;;;;;;8.07;5.80;;;10.40;74.40;;;;;;7550346;19;25528;-73
2023/12/28 15:58:56;;;;;;;7.47;4.18;;;10.30;74.70;;;;;;7539115;19;20073;-73
2023/12/28 16:01:28;;;;;;;7.75;4.05;;;10.20;74.50;;;;;;7509853;19;20035;-73
2023/12/28 16:04:03;;;;;;;5.88;3.83;;;10.30;73.90;;;;;;7532185;19;20018;-74
2023/12/28 16:06:35;;;;;;;5.55;3.30;;;10.40;73.20;;;;;;7535847;19;20502;-72
2023/12/28 16:09:08;;;;;;;7.47;3.50;;;10.40;72.70;;;;;;7535420;19;20022;-72
2023/12/28 16:11:40;;;;;;;14.30;4.72;;;10.40;72.70;;;;;;7535966;19;20019;-72
2023/12/28 16:14:13;;;;;;;7.70;4.25;;;10.30;77.10;;;;;;7507820;19;20104;-72
2023/12/28 16:16:46;;;;;;;10.83;4.53;;;10.40;74.70;;;;;;7511354;19;20006;-73
2023/12/28 16:19:18;;;;;;;7.07;3.90;;;10.40;73.20;;;;;;7527830;19;21487;-72
2023/12/28 16:21:51;;;;;;;15.77;8.33;;;10.30;75.60;;;;;;7535251;19;20026;-73
2023/12/28 16:24:23;;;;;;;13.25;7.28;;;10.30;72.80;;;;;;7532076;19;21297;-72
2023/12/28 16:26:56;;;;;;;10.50;5.70;;;10.40;72.70;;;;;;7526170;19;20930;-72
2023/12/28 16:29:29;;;;;;;10.63;5.32;;;10.40;71.90;;;;;;7521928;19;21102;-73
2023/12/28 16:32:02;;;;;;;12.57;5.88;;;10.40;72.90;;;;;;7513485;19;20981;-72
2023/12/28 16:34:36;;;;;;;9.05;5.97;;;10.40;72.20;;;;;;7495225;19;21621;-73
2023/12/28 16:37:09;;;;;;;9.93;5.40;;;10.40;72.00;;;;;;7529990;19;21090;-73
2023/12/28 16:39:42;;;;;;;11.97;5.23;;;10.40;72.20;;;;;;7536236;19;20015;-73
2023/12/28 16:42:15;;;;;;;9.05;5.38;;;10.50;72.10;;;;;;7527031;19;20010;-73
2023/12/28 16:44:48;;;;;;;8.55;4.95;;;10.50;71.80;;;;;;7526117;19;20015;-75
2023/12/28 16:47:20;;;;;;;9.40;4.95;;;10.50;72.00;;;;;;7540808;19;20019;-73
2023/12/28 16:49:53;;;;;;;10.40;5.60;;;10.40;72.10;;;;;;7547259;19;20026;-73
2023/12/28 16:52:25;;;;;;;14.85;8.75;;;10.50;72.50;;;;;;7570054;19;20097;-72
2023/12/28 16:54:57;;;;;;;18.77;8.30;;;10.40;72.60;;;;;;7544602;19;20021;-71
2023/12/28 16:57:30;;;;;;;11.65;6.95;;;10.40;72.40;;;;;;7555771;19;20014;-74
2023/12/28 17:00:03;;;;;;;10.90;6.20;;;10.40;72.60;;;;;;7544450;19;20015;-73
2023/12/28 17:02:43;;;;;;;10.90;4.57;;;10.40;72.80;;;;;;7533749;19;20078;-73
2023/12/28 17:05:16;;;;;;;7.15;4.32;;;10.40;72.70;;;;;;7534757;19;20018;-73
2023/12/28 17:07:50;;;;;;;8.50;4.50;;;10.50;73.10;;;;;;7543386;19;20522;-74
2023/12/28 17:10:22;;;;;;;6.28;4.05;;;10.50;73.30;;;;;;7576950;19;20404;-72
2023/12/28 17:12:55;;;;;;;6.20;3.07;;;10.40;73.20;;;;;;7564816;19;20520;-73
2023/12/28 17:15:28;;;;;;;6.28;3.67;;;10.40;73.00;;;;;;7555856;19;20590;-72
2023/12/28 17:18:00;;;;;;;6.70;4.00;;;10.40;73.50;;;;;;7561248;19;20339;-72
2023/12/28 17:20:34;;;;;;;7.55;4.10;;;10.40;73.00;;;;;;6050849;19;10000430;-72
2023/12/28 17:23:32;;;;;;;8.88;4.85;;;10.40;73.20;;;;;;7573207;19;20100;-73
2023/12/28 17:26:28;;;;;;;7.15;4.60;;;10.50;73.30;;;;;;7606106;19;20043;-74
2023/12/28 17:29:09;;;;;;;8.23;4.18;;;10.40;73.30;;;;;;7588099;19;20028;-73
2023/12/28 17:31:45;;;;;;;7.25;3.85;;;10.50;73.00;;;;;;7559673;19;20019;-71
2023/12/28 17:34:21;;;;;;;6.78;4.38;;;10.50;73.20;;;;;;7585683;19;20011;-72
2023/12/28 17:36:58;;;;;;;7.75;4.28;;;10.40;73.30;;;;;;7590027;19;20007;-73
2023/12/28 17:39:31;;;;;;;9.77;5.05;;;10.50;73.40;;;;;;7572118;19;20636;-73
2023/12/28 17:42:04;;;;;;;7.40;4.95;;;10.40;73.50;;;;;;7596395;19;20669;-72
2023/12/28 17:44:42;;;;;;;7.50;4.93;;;10.40;73.70;;;;;;7583752;19;20046;-72
2023/12/28 17:47:20;;;;;;;8.52;4.90;;;10.40;73.90;;;;;;7591143;19;20117;-74
2023/12/28 17:49:53;;;;;;;11.23;5.03;;;10.40;74.00;;;;;;7591676;19;20019;-73
2023/12/28 17:52:28;;;;;;;8.63;5.35;;;10.30;74.40;;;;;;7580311;19;20484;-73
2023/12/28 17:55:00;;;;;;;9.93;5.13;;;10.40;75.40;;;;;;7572801;19;20022;-73
2023/12/28 17:57:33;;;;;;;13.93;7.55;;;10.30;76.00;;;;;;7583720;19;20015;-73
2023/12/28 18:00:06;;;;;;;12.10;6.78;;;10.20;76.40;;;;;;7577743;19;20107;-73
2023/12/28 18:02:38;;;;;;;18.35;8.13;;;10.20;77.40;;;;;;7564717;19;20021;-72
2023/12/28 18:05:11;;;;;;;14.30;7.78;;;10.20;77.70;;;;;;7571922;19;20014;-73
2023/12/28 18:07:44;;;;;;;15.63;8.27;;;10.20;78.40;;;;;;7571799;19;20654;-73
2023/12/28 18:10:17;;;;;;;14.30;7.85;;;10.10;79.90;;;;;;7561438;19;20026;-72
2023/12/28 18:12:49;;;;;;;13.88;7.57;;;10.10;80.90;;;;;;7564256;19;20022;-73
2023/12/28 18:15:22;;;;;;;14.13;7.25;;;10.10;81.00;;;;;;7577829;19;20026;-72
2023/12/28 18:17:55;;;;;;;13.03;6.37;;;10.10;79.80;;;;;;7578889;19;20025;-72
2023/12/28 18:20:27;;;;;;;15.77;5.47;;;10.10;79.60;;;;;;7574840;19;20022;-72
2023/12/28 18:22:59;;;;;;;7.80;4.35;;;10.10;80.60;;;;;;7582867;19;20042;-72
2023/12/28 18:25:32;;;;;;;8.25;4.85;;;10.00;80.40;;;;;;7577200;19;20868;-72
2023/12/28 18:28:05;;;;;;;9.60;5.53;;;10.00;79.30;;;;;;7578180;19;20015;-72
2023/12/28 18:30:46;;;;;;;6.95;4.63;;;9.90;79.20;;;;;;7574090;19;20912;-72
2023/12/28 18:33:27;;;;;;;7.78;4.53;;;10.00;79.20;;;;;;7593436;19;20018;-72
2023/12/28 18:36:02;;;;;;;8.13;4.72;;;9.90;78.90;;;;;;7578505;19;20396;-74
2023/12/28 18:38:35;;;;;;;8.55;4.63;;;9.90;78.60;;;;;;7572945;19;20049;-72
2023/12/28 18:41:08;;;;;;;5.88;4.03;;;9.90;78.70;;;;;;7592775;19;20635;-72
2023/12/28 18:43:40;;;;;;;6.55;3.40;;;9.90;78.50;;;;;;7594625;19;20025;-73
2023/12/28 18:46:12;;;;;;;6.07;3.33;;;9.90;78.20;;;;;;7583996;19;20113;-73
2023/12/28 18:48:45;;;;;;;5.30;3.50;;;9.90;77.80;;;;;;7579133;19;20014;-73
2023/12/28 18:51:18;;;;;;;4.80;3.25;;;9.90;77.70;;;;;;7059457;19;9999926;-73
2023/12/28 18:53:51;;;;;;;5.93;3.87;;;9.80;77.70;;;;;;7584840;19;20677;-74
2023/12/28 18:56:24;;;;;;;7.82;4.20;;;9.90;78.20;;;;;;7569557;19;21007;-73
2023/12/28 18:58:56;;;;;;;;;;;9.90;78.10;;;;;;7537853;19;20153;-73
2023/12/28 19:01:29;;;;;;;6.88;4.10;;;9.90;78.10;;;;;;7558640;19;20279;-73
2023/12/28 19:04:02;;;;;;;8.15;4.43;;;9.90;77.30;;;;;;7588391;19;20018;-72
2023/12/28 19:06:35;;;;;;;5.38;3.85;;;9.90;76.90;;;;;;7577925;19;20029;-72
2023/12/28 19:09:08;;;;;;;6.82;4.68;;;9.90;77.20;;;;;;7573562;19;20021;-74
2023/12/28 19:11:42;;;;;;;6.03;3.95;;;9.90;76.80;;;;;;7580115;19;20064;-74
2023/12/28 19:14:16;;;;;;;8.23;4.35;;;10.00;76.00;;;;;;7572723;19;20021;-73
2023/12/28 19:16:48;;;;;;;;;;;9.90;76.20;;;;;;7584006;19;20025;-75
2023/12/28 19:19:22;;;;;;;6.90;3.58;;;9.90;76.00;;;;;;7587132;19;20022;-76
2023/12/28 19:21:54;;;;;;;6.65;3.63;;;9.90;76.10;;;;;;7570536;19;20010;-73
2023/12/28 19:24:27;;;;;;;6.75;3.22;;;9.80;75.70;;;;;;7576934;19;20022;-75
2023/12/28 19:26:59;;;;;;;8.45;3.75;;;9.80;75.60;;;;;;7576865;19;20018;-73
2023/12/28 19:29:31;;;;;;;11.00;4.38;;;9.90;75.70;;;;;;7581835;19;20854;-72
2023/12/28 19:32:04;;;;;;;6.20;3.53;;;9.90;76.20;;;;;;7565619;19;21748;-74
2023/12/28 19:34:36;;;;;;;9.00;4.60;;;9.90;76.00;;;;;;7590053;19;20904;-73
2023/12/28 19:37:09;;;;;;;8.68;4.55;;;9.90;75.80;;;;;;7580974;19;20428;-74
2023/12/28 19:39:43;;;;;;;10.30;6.40;;;9.80;75.30;;;;;;7583396;19;20986;-74
2023/12/28 19:42:16;;;;;;;15.15;8.32;;;9.90;75.40;;;;;;7583136;19;20941;-75
2023/12/28 19:44:49;;;;;;;19.02;10.57;;;9.90;75.40;;;;;;7551473;19;20315;-74
2023/12/28 19:47:21;;;;;;;16.20;8.63;;;9.90;75.60;;;;;;7585935;19;20018;-73
2023/12/28 19:49:54;;;;;;;13.18;7.10;;;9.90;75.20;;;;;;7587377;19;21014;-74
2023/12/28 19:52:27;;;;;;;9.87;6.07;;;9.90;75.30;;;;;;7598113;19;20636;-74
2023/12/28 19:54:59;;;;;;;8.40;5.60;;;9.90;74.80;;;;;;7597869;19;20455;-74
2023/12/28 19:57:32;;;;;;;11.50;5.83;;;9.90;74.60;;;;;;7591451;19;21146;-74
2023/12/28 20:00:06;;;;;;;10.70;4.63;;;9.90;75.40;;;;;;7587544;19;20436;-74
2023/12/28 20:02:42;;;;;;;7.97;4.95;;;10.00;75.00;;;;;;7602970;19;20882;-74
2023/12/28 20:05:16;;;;;;;7.28;4.45;;;9.90;76.90;;;;;;7599199;19;20014;-74
2023/12/28 20:07:48;;;;;;;9.85;4.78;;;9.80;77.80;;;;;;7597279;19;20366;-73
2023/12/28 20:10:21;;;;;;;7.95;4.47;;;9.70;79.00;;;;;;7588338;19;20021;-75
2023/12/28 20:12:54;;;;;;;7.45;4.88;;;9.70;78.80;;;;;;7602043;19;20082;-74
2023/12/28 20:15:27;;;;;;;8.30;4.85;;;9.70;76.80;;;;;;7592235;19;20035;-73
2023/12/28 20:18:00;;;;;;;7.70;4.80;;;9.80;76.30;;;;;;7615542;19;20096;-74
2023/12/28 20:20:33;;;;;;;7.50;4.07;;;9.80;75.90;;;;;;7612302;19;20650;-76
2023/12/28 20:23:05;;;;;;;9.98;5.53;;;9.80;75.30;;;;;;7610212;19;20026;-74
2023/12/28 20:25:38;;;;;;;6.97;4.10;;;9.90;75.40;;;;;;7609293;19;20336;-75
2023/12/28 20:28:11;;;;;;;7.38;4.28;;;9.90;75.80;;;;;;7613511;19;20017;-75
2023/12/28 20:30:44;;;;;;;6.80;4.28;;;9.80;76.20;;;;;;7598102;19;20545;-75
2023/12/28 20:33:17;;;;;;;6.65;4.05;;;9.70;76.80;;;;;;7607149;19;20010;-74
2023/12/28 20:35:50;;;;;;;7.82;4.35;;;9.70;76.30;;;;;;7602740;19;20034;-74
2023/12/28 20:38:23;;;;;;;7.00;4.30;;;9.70;76.80;;;;;;7589304;19;20015;-74
2023/12/28 20:40:55;;;;;;;6.55;3.58;;;9.60;76.80;;;;;;7600057;19;20282;-74
2023/12/28 20:43:28;;;;;;;5.05;3.53;;;9.60;76.80;;;;;;7602291;19;20045;-76
2023/12/28 20:46:02;;;;;;;9.43;4.50;;;9.60;76.80;;;;;;7592670;19;20415;-74
2023/12/28 20:48:35;;;;;;;7.57;4.28;;;9.60;79.30;;;;;;7607798;19;20307;-75
2023/12/28 20:51:08;;;;;;;6.43;4.43;;;9.40;80.10;;;;;;7595019;19;20010;-74
2023/12/28 20:53:43;;;;;;;9.75;4.80;;;9.30;81.30;;;;;;7605770;19;20018;-74
2023/12/28 20:56:16;;;;;;;;;;;9.20;80.20;;;;;;7598257;19;20018;-75
2023/12/28 20:58:48;;;;;;;9.20;4.40;;;9.20;79.00;;;;;;7599783;19;20463;-74
2023/12/28 21:01:20;;;;;;;9.80;5.78;;;9.10;81.40;;;;;;7593834;19;20856;-75
2023/12/28 21:03:53;;;;;;;10.60;5.60;;;9.10;79.70;;;;;;7608789;19;20010;-74
2023/12/28 21:06:26;;;;;;;10.45;5.78;;;9.10;79.80;;;;;;7602802;19;20055;-74
2023/12/28 21:08:58;;;;;;;8.63;5.13;;;9.00;80.40;;;;;;7599553;19;20021;-74
2023/12/28 21:11:31;;;;;;;12.55;6.75;;;9.00;83.00;;;;;;7610886;19;20015;-73
2023/12/28 21:14:04;;;;;;;11.02;5.63;;;9.00;80.70;;;;;;7597906;19;20389;-73
2023/12/28 21:16:36;;;;;;;10.98;6.40;;;8.90;82.40;;;;;;7602560;19;20498;-75
2023/12/28 21:19:09;;;;;;;10.07;5.60;;;8.80;85.00;;;;;;7598539;19;20078;-73
2023/12/28 21:21:42;;;;;;;19.75;7.88;;;8.70;84.30;;;;;;7597895;19;20047;-73
2023/12/28 21:24:14;;;;;;;11.32;6.18;;;8.60;88.40;;;;;;7603418;19;20043;-74
2023/12/28 21:26:47;;;;;;;15.68;6.45;;;8.50;87.60;;;;;;7559652;19;20029;-75
2023/12/28 21:29:20;;;;;;;;;;;8.50;88.70;;;;;;7554940;19;20629;-73
2023/12/28 21:31:53;;;;;;;8.45;4.82;;;8.50;89.00;;;;;;7575684;19;19929;-75
2023/12/28 21:34:27;;;;;;;9.30;4.90;;;8.50;84.40;;;;;;7579720;19;20733;-77
2023/12/28 21:36:59;;;;;;;8.27;4.70;;;8.60;85.60;;;;;;7576096;19;20070;-73
